Flight Track Log - Related Links

Times and Time Zones

All times are in EST time to prevent confusion due to time zone crossing. See the FDX1409 flight status page for this flight to view local times or setup timezone preferences in your user account.

Time Position Orientation Groundspeed Altitude Reporting Facility
EST Latitude Longitude Course Direction KTS MPH feet Rate Location/Type
Sat 05:09:36 AM 35.0167 -89.9833 180° South 174 200 1,000  Level KMEM
Sat 05:10:24 AM 34.9833 -89.9833 180° South 169 194 2,100 2,053 Climbing KMEM
Sat 05:11:30 AM 34.9167 -89.9833 180° South 247 284 4,900 2,554 Climbing KMEM
Sat 05:12:05 AM 34.8733 -89.9867 184° South 235 270 6,400 2,625 Climbing Memphis Center
Sat 05:13:06 AM 34.8086 -89.9406 150° Southeast 268 308 9,100 2,380 Climbing Memphis Center
Sat 05:14:06 AM 34.7433 -89.8833 144° Southeast 283 326 11,200 1,686 Climbing Memphis Center
Sat 05:15:07 AM 34.6669 -89.8175 145° Southeast 329 379 12,500 1,550 Climbing Memphis Center
Sat 05:20:33 AM 34.2010 -89.2290 145° Southeast 488 562 21,200 1,589 Climbing FlightAware ADS-B
Sat 05:21:02 AM 34.1600 -89.1690 130° Southeast 488 562 21,900 1,011 Climbing FlightAware ADS-B
Sat 05:22:02 AM 34.0810 -89.0460 128° Southeast 497 572 22,700 1,282 Climbing FlightAware ADS-B
Sat 05:22:45 AM 34.0110 -88.9400 129° Southeast 509 586 24,100 1,714 Climbing FlightAware ADS-B
Sat 05:23:26 AM 33.9520 -88.8510 129° Southeast 511 588 25,100 1,220 Climbing FlightAware ADS-B
Sat 05:23:44 AM 33.9270 -88.8130 128° Southeast 514 592 25,300 800 Climbing FlightAware ADS-B
Sat 05:24:11 AM 33.8870 -88.7540 129° Southeast 520 598 25,700 885 Climbing FlightAware ADS-B
Sat 05:24:45 AM 33.8330 -88.6710 128° Southeast 526 605 26,200 357 Climbing FlightAware ADS-B
Sat 05:25:35 AM 33.7700 -88.5730 128° Southeast 526 605 26,200 907 Level FlightAware ADS-B
Sat 05:26:11 AM 33.6980 -88.4670 129° Southeast 543 625 27,500 1,011 Climbing FlightAware ADS-B
Sat 05:27:04 AM 33.6260 -88.3570 128° Southeast 544 626 27,700 135 Climbing FlightAware ADS-B
Sat 05:27:40 AM 33.5790 -88.2840 128° Southeast 544 626 27,700  Level FlightAware ADS-B
Sat 05:28:16 AM 33.5310 -88.2110 128° Southeast 544 626 27,700  Level FlightAware ADS-B
Sat 05:29:04 AM 33.4680 -88.1140 128° Southeast 544 626 27,700  Level FlightAware ADS-B
Sat 05:29:40 AM 33.4210 -88.0420 128° Southeast 544 626 27,700 3,649 Level FlightAware ADS-B
Sat 05:30:18 AM 33.3100 -87.8880 131° Southeast 536 617 32,200 4,000 Climbing FlightAware ADS-B
Sat 05:30:55 AM 33.2530 -87.8060 130° Southeast 536 617 32,700 761 Climbing FlightAware ADS-B
Sat 05:31:29 AM 33.2010 -87.7270 128° Southeast 538 619 33,100 750 Climbing FlightAware ADS-B
Sat 05:32:07 AM 33.1430 -87.6420 129° Southeast 537 618 33,600 750 Climbing FlightAware ADS-B
Sat 05:32:33 AM 33.1010 -87.5800 129° Southeast 538 619 33,900 296 Climbing FlightAware ADS-B
Sat 05:33:28 AM 33.0200 -87.4610 129° Southeast 544 626 34,000 66 Climbing FlightAware ADS-B
Sat 05:34:04 AM 32.9710 -87.3900 129° Southeast 544 626 34,000  Level FlightAware ADS-B
Sat 05:35:17 AM 32.8730 -87.2450 129° Southeast 544 626 34,000  Level FlightAware ADS-B
Sat 05:35:41 AM 32.8410 -87.1980 129° Southeast 544 626 34,000  Level FlightAware ADS-B
Sat 05:36:17 AM 32.7920 -87.1270 129° Southeast 544 626 34,000  Level FlightAware ADS-B
Sat 05:37:05 AM 32.7280 -87.0320 129° Southeast 544 626 34,000  Level FlightAware ADS-B
Sat 05:37:41 AM 32.6790 -86.9610 129° Southeast 544 626 34,000  Level FlightAware ADS-B
Sat 05:38:18 AM 32.6290 -86.8870 129° Southeast 544 626 34,000 1,622 Level FlightAware ADS-B
Sat 05:39:32 AM 32.4030 -86.5860 132° Southeast 567 652 37,000 1,837 Climbing FlightAware ADS-B
Sat 05:39:56 AM 32.3650 -86.5310 129° Southeast 571 657 37,000  Level FlightAware ADS-B
Sat 05:40:44 AM 32.2810 -86.4140 130° Southeast 574 661 37,000  Level FlightAware ADS-B
Sat 05:41:26 AM 32.2100 -86.3150 130° Southeast 575 662 37,000  Level FlightAware ADS-B
Sat 05:42:34 AM 32.0930 -86.1520 130° Southeast 575 662 37,000  Level FlightAware ADS-B
Sat 05:43:38 AM 31.9840 -85.9990 130° Southeast 574 661 37,000  Level FlightAware ADS-B
Sat 05:44:26 AM 31.8990 -85.8850 131° Southeast 575 662 37,000  Level FlightAware ADS-B
Sat 05:44:58 AM 31.8440 -85.8090 130° Southeast 575 662 37,000  Level FlightAware ADS-B
Sat 05:45:38 AM 31.7740 -85.7110 130° Southeast 575 662 37,000  Level FlightAware ADS-B
Sat 05:46:11 AM 31.7170 -85.6330 131° Southeast 573 659 37,000  Level FlightAware ADS-B
Sat 05:46:43 AM 31.6620 -85.5570 130° Southeast 574 661 37,000 97 Level FlightAware ADS-B
Sat 05:47:13 AM 31.6100 -85.4860 131° Southeast 573 659 37,100  Climbing FlightAware ADS-B
Sat 05:47:59 AM 31.5330 -85.3820 131° Southeast 573 659 37,000 -70 Descending FlightAware ADS-B
Sat 05:48:39 AM 31.4620 -85.2860 131° Southeast 574 661 37,000  Level FlightAware ADS-B
Sat 05:49:05 AM 31.4150 -85.2220 131° Southeast 573 659 37,000  Level FlightAware ADS-B
Sat 05:50:09 AM 31.3050 -85.0720 131° Southeast 572 658 37,000  Level FlightAware ADS-B
Sat 05:50:31 AM 31.2670 -85.0200 131° Southeast 572 658 37,000  Level FlightAware ADS-B
Sat 05:51:17 AM 31.1930 -84.9200 131° Southeast 572 658 37,000  Level FlightAware ADS-B
Sat 05:51:54 AM 31.1310 -84.8350 130° Southeast 572 658 37,000  Level FlightAware ADS-B
Sat 05:52:30 AM 31.0780 -84.7620 130° Southeast 572 658 37,000  Level FlightAware ADS-B
Sat 05:53:14 AM 30.9850 -84.6420 132° Southeast 573 659 37,000  Level FlightAware ADS-B
Sat 05:54:01 AM 30.9020 -84.5310 131° Southeast 572 658 37,000  Level FlightAware ADS-B
Sat 05:54:42 AM 30.8290 -84.4360 132° Southeast 573 659 37,000  Level FlightAware ADS-B
Sat 05:55:15 AM 30.7730 -84.3610 131° Southeast 573 659 37,000  Level FlightAware ADS-B
Sat 05:55:43 AM 30.7241 -84.2967 131° Southeast 573 659 37,000  Level FlightAware ADS-B (KONZ)
Sat 05:56:13 AM 30.6721 -84.2270 131° Southeast 573 659 37,000  Level FlightAware ADS-B (KONZ)
Sat 05:56:51 AM 30.6043 -84.1371 131° Southeast 572 658 37,000  Level FlightAware ADS-B (KONZ)
Sat 05:57:33 AM 30.5310 -84.0403 131° Southeast 572 658 37,000  Level FlightAware ADS-B (KONZ)
Sat 05:58:04 AM 30.4788 -83.9713 131° Southeast 571 657 37,000 98 Level FlightAware ADS-B (KONZ)
Sat 05:58:34 AM 30.4299 -83.9070 131° Southeast 571 657 37,100 87 Climbing FlightAware ADS-B (KONZ)
Sat 05:59:13 AM 30.3553 -83.8109 132° Southeast 571 657 37,100  Level FlightAware ADS-B (KONZ)
Sat 05:59:44 AM 30.3026 -83.7423 132° Southeast 570 656 37,100  Level FlightAware ADS-B (KONZ)
Sat 06:00:22 AM 30.2348 -83.6532 131° Southeast 570 656 37,100  Level FlightAware ADS-B (KONZ)
Sat 06:01:00 AM 30.1700 -83.5690 132° Southeast 568 654 37,100  Level FlightAware ADS-B
Sat 06:01:32 AM 30.1130 -83.4950 132° Southeast 568 654 37,100 -94 Level FlightAware ADS-B
Sat 06:02:04 AM 30.0570 -83.4220 132° Southeast 568 654 37,000 -952 Descending FlightAware ADS-B
Sat 06:02:35 AM 30.0040 -83.3550 132° Southeast 565 650 36,100 -2,382 Descending FlightAware ADS-B
Sat 06:03:12 AM 29.9420 -83.2730 131° Southeast 563 648 34,300 -2,301 Descending FlightAware ADS-B
Sat 06:03:48 AM 29.8810 -83.1950 132° Southeast 538 619 33,300 -1,690 Descending FlightAware ADS-B
Sat 06:04:23 AM 29.8240 -83.1210 132° Southeast 514 592 32,300 -2,571 Descending FlightAware ADS-B
Sat 06:05:05 AM 29.7560 -83.0350 132° Southeast 509 586 30,000 -2,769 Descending FlightAware ADS-B
Sat 06:05:41 AM 29.6980 -82.9610 132° Southeast 494 568 28,700 -2,043 Descending FlightAware ADS-B
Sat 06:06:39 AM 29.6120 -82.8500 132° Southeast 473 544 26,800 -1,875 Descending FlightAware ADS-B
Sat 06:07:17 AM 29.5580 -82.7800 132° Southeast 460 529 25,700 -1,852 Descending FlightAware ADS-B
Sat 06:08:00 AM 29.4960 -82.7020 132° Southeast 451 519 24,300 -1,838 Descending FlightAware ADS-B
Sat 06:09:08 AM 29.4030 -82.5850 132° Southeast 436 502 22,300 -1,904 Descending FlightAware ADS-B
Sat 06:09:44 AM 29.3550 -82.5240 132° Southeast 426 490 21,000 -2,104 Descending FlightAware ADS-B
Sat 06:10:25 AM 29.3000 -82.4540 132° Southeast 414 476 19,600 -2,137 Descending FlightAware ADS-B
Sat 06:10:57 AM 29.2590 -82.4030 133° Southeast 410 472 18,400 -2,143 Descending FlightAware ADS-B
Sat 06:11:35 AM 29.2110 -82.3420 132° Southeast 400 460 17,100 -1,948 Descending FlightAware ADS-B
Sat 06:12:14 AM 29.1640 -82.2830 132° Southeast 392 451 15,900 -1,823 Descending FlightAware ADS-B
Sat 06:12:54 AM 29.1150 -82.2210 132° Southeast 377 434 14,700 -1,765 Descending FlightAware ADS-B
Sat 06:13:22 AM 29.0820 -82.1800 133° Southeast 365 420 13,900 -1,869 Descending FlightAware ADS-B
Sat 06:13:55 AM 29.0450 -82.1340 133° Southeast 364 419 12,800 -1,378 Descending FlightAware ADS-B
Sat 06:14:36 AM 29.0000 -82.0780 133° Southeast 334 384 12,200 -706 Descending FlightAware ADS-B
Sat 06:15:03 AM 28.9740 -82.0440 131° Southeast 331 381 12,000 -667 Descending FlightAware ADS-B
Sat 06:15:48 AM 28.9260 -81.9850 133° Southeast 317 365 11,400 -742 Descending FlightAware ADS-B
Sat 06:16:32 AM 28.8825 -81.9310 133° Southeast 309 356 10,900 -333 Descending FlightAware ADS-B
Sat 06:17:54 AM 28.8231 -81.8256 123° Southeast 306 352 10,700 -284 Descending FlightAware ADS-B
Sat 06:19:00 AM 28.7686 -81.7334 124° Southeast 299 344 10,200 -585 Descending FlightAware ADS-B
Sat 06:19:16 AM 28.7566 -81.7123 123° Southeast 296 341 9,900 -1,200 Descending FlightAware ADS-B
Sat 06:19:40 AM 28.7427 -81.6788 115° Southeast 291 335 9,400 -1,277 Descending FlightAware ADS-B
Sat 06:20:03 AM 28.7314 -81.6462 111° Southeast 287 330 8,900 -1,395 Descending FlightAware ADS-B
Sat 06:20:23 AM 28.7220 -81.6180 111° Southeast 285 328 8,400 -1,200 Descending FlightAware ADS-B
Sat 06:20:43 AM 28.7130 -81.5901 110° East 278 320 8,100 -900 Descending FlightAware ADS-B
Sat 06:21:03 AM 28.7040 -81.5617 110° East 268 308 7,800 -833 Descending FlightAware ADS-B
Sat 06:21:19 AM 28.6976 -81.5420 110° East 260 299 7,600 -774 Descending FlightAware ADS-B
Sat 06:21:34 AM 28.6915 -81.5231 110° East 252 290 7,400 -600 Descending FlightAware ADS-B
Sat 06:21:49 AM 28.6859 -81.5057 110° East 245 282 7,300 -938 Descending FlightAware ADS-B
Sat 06:22:06 AM 28.6790 -81.4839 110° East 243 280 6,900 -1,459 Descending FlightAware ADS-B
Sat 06:22:26 AM 28.6715 -81.4596 109° East 246 283 6,400 -1,650 Descending FlightAware ADS-B
Sat 06:22:46 AM 28.6635 -81.4349 110° East 255 293 5,800 -1,953 Descending FlightAware ADS-B
Sat 06:23:09 AM 28.6540 -81.4069 111° Southeast 256 295 5,000 -2,182 Descending FlightAware ADS-B
Sat 06:23:19 AM 28.6485 -81.3968 122° Southeast 253 291 4,600 -2,286 Descending FlightAware ADS-B
Sat 06:23:30 AM 28.6370 -81.3856 140° Southeast 250 288 4,200 -2,200 Descending FlightAware ADS-B
Sat 06:23:49 AM 28.6176 -81.3727 150° Southeast 245 282 3,500 -1,895 Descending FlightAware ADS-B
Sat 06:24:08 AM 28.6026 -81.3625 149° Southeast 240 276 3,000 -1,429 Descending FlightAware ADS-B
Sat 06:24:31 AM 28.5790 -81.3468 150° Southeast 213 245 2,500 -955 Descending FlightAware ADS-B
Sat 06:24:52 AM 28.5614 -81.3374 155° Southeast 184 212 2,300 -558 Descending FlightAware ADS-B
Sat 06:25:14 AM 28.5448 -81.3325 165° South 157 181 2,100 -857 Descending FlightAware ADS-B
Sat 06:25:34 AM 28.5308 -81.3302 172° South 142 163 1,700 -1,231 Descending FlightAware ADS-B
Sat 06:25:53 AM 28.5191 -81.3288 174° South 132 152 1,300 -878 Descending FlightAware ADS-B
Sat 06:26:15 AM 28.5054 -81.3279 177° South 134 154 1,100 -585 Descending FlightAware ADS-B
Sat 06:26:34 AM 28.4935 -81.3276 179° South 137 158 900 -750 Descending FlightAware ADS-B
Sat 06:26:55 AM 28.4791 -81.3273 179° South 157 181 600 -857 Descending FlightAware ADS-B
Sat 06:27:16 AM 28.4654 -81.3273 180° South 151 174 300 -714 Descending FlightAware ADS-B
Sat 06:27:37 AM 28.4502 -81.3270 179° South 156 180 100 -571 Descending FlightAware ADS-B

Login

Don't have an account? Register now (free) for customized features, flight alerts, and more!